sensor_id;sensor_type;location;lat;lon;timestamp;P1;durP1;ratioP1;P2;durP2;ratioP2
84254;SDS011;74400;44.692;18.998;2024-03-17T00:00:30;31.83;;;18.27;;
84254;SDS011;74400;44.692;18.998;2024-03-17T00:02:56;30.35;;;17.58;;
84254;SDS011;74400;44.692;18.998;2024-03-17T00:05:22;26.17;;;15.95;;
84254;SDS011;74400;44.692;18.998;2024-03-17T00:07:48;27.73;;;17.05;;
84254;SDS011;74400;44.692;18.998;2024-03-17T00:10:13;32.75;;;18.67;;
84254;SDS011;74400;44.692;18.998;2024-03-17T00:12:40;29.23;;;18.45;;
84254;SDS011;74400;44.692;18.998;2024-03-17T00:15:06;30.98;;;18.83;;
84254;SDS011;74400;44.692;18.998;2024-03-17T00:17:33;30.33;;;16.88;;
84254;SDS011;74400;44.692;18.998;2024-03-17T00:20:02;32.42;;;18.40;;
84254;SDS011;74400;44.692;18.998;2024-03-17T00:22:34;31.75;;;16.88;;
84254;SDS011;74400;44.692;18.998;2024-03-17T00:25:04;30.55;;;17.02;;
84254;SDS011;74400;44.692;18.998;2024-03-17T00:27:33;32.50;;;17.65;;
84254;SDS011;74400;44.692;18.998;2024-03-17T00:30:05;34.80;;;19.55;;
84254;SDS011;74400;44.692;18.998;2024-03-17T00:32:35;33.80;;;19.67;;
84254;SDS011;74400;44.692;18.998;2024-03-17T00:35:01;28.30;;;17.70;;
84254;SDS011;74400;44.692;18.998;2024-03-17T00:37:27;30.67;;;16.60;;
84254;SDS011;74400;44.692;18.998;2024-03-17T00:39:53;26.67;;;15.98;;
84254;SDS011;74400;44.692;18.998;2024-03-17T00:42:19;26.00;;;15.43;;
84254;SDS011;74400;44.692;18.998;2024-03-17T00:44:44;28.90;;;16.45;;
84254;SDS011;74400;44.692;18.998;2024-03-17T00:47:10;29.40;;;16.83;;
84254;SDS011;74400;44.692;18.998;2024-03-17T00:49:36;27.25;;;16.25;;
84254;SDS011;74400;44.692;18.998;2024-03-17T00:52:01;22.48;;;14.90;;
84254;SDS011;74400;44.692;18.998;2024-03-17T00:54:27;24.98;;;15.95;;
84254;SDS011;74400;44.692;18.998;2024-03-17T00:56:52;30.80;;;16.55;;
84254;SDS011;74400;44.692;18.998;2024-03-17T00:59:18;32.78;;;17.63;;
84254;SDS011;74400;44.692;18.998;2024-03-17T01:01:44;31.00;;;17.02;;
84254;SDS011;74400;44.692;18.998;2024-03-17T01:04:09;36.28;;;17.58;;
84254;SDS011;74400;44.692;18.998;2024-03-17T01:06:35;31.95;;;16.25;;
84254;SDS011;74400;44.692;18.998;2024-03-17T01:09:01;27.38;;;15.65;;
84254;SDS011;74400;44.692;18.998;2024-03-17T01:11:27;30.92;;;16.90;;
84254;SDS011;74400;44.692;18.998;2024-03-17T01:13:52;26.13;;;15.45;;
84254;SDS011;74400;44.692;18.998;2024-03-17T01:16:18;32.53;;;16.85;;
84254;SDS011;74400;44.692;18.998;2024-03-17T01:18:44;28.58;;;16.20;;
84254;SDS011;74400;44.692;18.998;2024-03-17T01:21:11;31.23;;;16.85;;
84254;SDS011;74400;44.692;18.998;2024-03-17T01:23:37;31.23;;;16.63;;
84254;SDS011;74400;44.692;18.998;2024-03-17T01:26:02;32.85;;;16.23;;
84254;SDS011;74400;44.692;18.998;2024-03-17T01:28:28;26.60;;;16.13;;
84254;SDS011;74400;44.692;18.998;2024-03-17T01:30:54;26.20;;;17.10;;
84254;SDS011;74400;44.692;18.998;2024-03-17T01:33:19;30.10;;;16.65;;
84254;SDS011;74400;44.692;18.998;2024-03-17T01:35:45;26.15;;;16.55;;
84254;SDS011;74400;44.692;18.998;2024-03-17T01:38:11;31.00;;;17.48;;
84254;SDS011;74400;44.692;18.998;2024-03-17T01:40:37;26.10;;;16.15;;
84254;SDS011;74400;44.692;18.998;2024-03-17T01:43:02;28.88;;;16.70;;
84254;SDS011;74400;44.692;18.998;2024-03-17T01:45:32;30.30;;;17.73;;
84254;SDS011;74400;44.692;18.998;2024-03-17T01:58:38;33.03;;;17.77;;
84254;SDS011;74400;44.692;18.998;2024-03-17T02:01:03;27.75;;;16.90;;
84254;SDS011;74400;44.692;18.998;2024-03-17T02:03:30;27.98;;;16.45;;
84254;SDS011;74400;44.692;18.998;2024-03-17T02:05:56;28.05;;;17.02;;
84254;SDS011;74400;44.692;18.998;2024-03-17T02:08:23;28.58;;;17.20;;
84254;SDS011;74400;44.692;18.998;2024-03-17T02:10:53;26.35;;;17.80;;
84254;SDS011;74400;44.692;18.998;2024-03-17T02:13:20;30.67;;;17.98;;
84254;SDS011;74400;44.692;18.998;2024-03-17T02:15:47;27.33;;;17.75;;
84254;SDS011;74400;44.692;18.998;2024-03-17T02:18:13;27.05;;;17.23;;
84254;SDS011;74400;44.692;18.998;2024-03-17T02:20:39;29.13;;;17.08;;
84254;SDS011;74400;44.692;18.998;2024-03-17T02:23:07;27.48;;;17.23;;
84254;SDS011;74400;44.692;18.998;2024-03-17T02:25:33;29.15;;;17.10;;
84254;SDS011;74400;44.692;18.998;2024-03-17T02:27:58;27.23;;;16.52;;
84254;SDS011;74400;44.692;18.998;2024-03-17T02:30:24;26.58;;;17.38;;
84254;SDS011;74400;44.692;18.998;2024-03-17T02:32:53;28.73;;;17.45;;
84254;SDS011;74400;44.692;18.998;2024-03-17T02:35:20;27.02;;;18.00;;
84254;SDS011;74400;44.692;18.998;2024-03-17T02:37:47;29.85;;;17.90;;
84254;SDS011;74400;44.692;18.998;2024-03-17T02:40:12;26.17;;;16.50;;
84254;SDS011;74400;44.692;18.998;2024-03-17T02:42:39;26.13;;;15.90;;
84254;SDS011;74400;44.692;18.998;2024-03-17T02:45:06;24.88;;;15.43;;
84254;SDS011;74400;44.692;18.998;2024-03-17T02:47:33;24.52;;;15.45;;
84254;SDS011;74400;44.692;18.998;2024-03-17T02:50:00;28.50;;;16.55;;
84254;SDS011;74400;44.692;18.998;2024-03-17T02:52:26;26.10;;;16.50;;
84254;SDS011;74400;44.692;18.998;2024-03-17T02:54:52;24.58;;;16.17;;
84254;SDS011;74400;44.692;18.998;2024-03-17T02:57:18;22.90;;;16.30;;
84254;SDS011;74400;44.692;18.998;2024-03-17T02:59:44;29.67;;;17.48;;
84254;SDS011;74400;44.692;18.998;2024-03-17T03:02:11;26.75;;;16.83;;
84254;SDS011;74400;44.692;18.998;2024-03-17T03:04:37;24.88;;;16.75;;
84254;SDS011;74400;44.692;18.998;2024-03-17T03:07:03;25.77;;;16.58;;
84254;SDS011;74400;44.692;18.998;2024-03-17T03:09:29;28.33;;;17.00;;
84254;SDS011;74400;44.692;18.998;2024-03-17T03:11:58;25.40;;;16.77;;
84254;SDS011;74400;44.692;18.998;2024-03-17T03:14:24;27.05;;;16.60;;
84254;SDS011;74400;44.692;18.998;2024-03-17T03:16:50;31.17;;;16.85;;
84254;SDS011;74400;44.692;18.998;2024-03-17T03:19:16;27.70;;;17.55;;
84254;SDS011;74400;44.692;18.998;2024-03-17T03:21:42;26.23;;;15.98;;
84254;SDS011;74400;44.692;18.998;2024-03-17T03:24:08;28.13;;;16.20;;
84254;SDS011;74400;44.692;18.998;2024-03-17T03:26:33;26.85;;;17.20;;
84254;SDS011;74400;44.692;18.998;2024-03-17T03:28:59;26.85;;;17.40;;
84254;SDS011;74400;44.692;18.998;2024-03-17T03:31:25;25.38;;;16.92;;
84254;SDS011;74400;44.692;18.998;2024-03-17T03:33:50;24.60;;;15.88;;
84254;SDS011;74400;44.692;18.998;2024-03-17T03:36:16;26.55;;;16.95;;
84254;SDS011;74400;44.692;18.998;2024-03-17T03:38:46;24.90;;;16.45;;
84254;SDS011;74400;44.692;18.998;2024-03-17T03:41:13;26.17;;;16.73;;
84254;SDS011;74400;44.692;18.998;2024-03-17T03:43:40;26.33;;;16.25;;
84254;SDS011;74400;44.692;18.998;2024-03-17T03:46:06;28.00;;;16.42;;
84254;SDS011;74400;44.692;18.998;2024-03-17T03:48:33;27.73;;;17.30;;
84254;SDS011;74400;44.692;18.998;2024-03-17T03:51:06;27.38;;;16.65;;
84254;SDS011;74400;44.692;18.998;2024-03-17T03:53:33;24.90;;;16.52;;
84254;SDS011;74400;44.692;18.998;2024-03-17T03:55:59;25.00;;;16.13;;
84254;SDS011;74400;44.692;18.998;2024-03-17T03:58:29;26.25;;;15.95;;
84254;SDS011;74400;44.692;18.998;2024-03-17T04:00:55;24.45;;;16.17;;
84254;SDS011;74400;44.692;18.998;2024-03-17T04:03:21;25.40;;;15.85;;
84254;SDS011;74400;44.692;18.998;2024-03-17T04:05:47;26.15;;;16.17;;
84254;SDS011;74400;44.692;18.998;2024-03-17T04:08:13;24.70;;;16.35;;
84254;SDS011;74400;44.692;18.998;2024-03-17T04:10:39;27.00;;;17.25;;
84254;SDS011;74400;44.692;18.998;2024-03-17T04:13:04;26.75;;;16.77;;
84254;SDS011;74400;44.692;18.998;2024-03-17T04:15:30;27.90;;;16.15;;
84254;SDS011;74400;44.692;18.998;2024-03-17T04:17:56;22.85;;;16.35;;
84254;SDS011;74400;44.692;18.998;2024-03-17T04:20:21;25.75;;;16.20;;
84254;SDS011;74400;44.692;18.998;2024-03-17T04:22:47;27.25;;;17.58;;
84254;SDS011;74400;44.692;18.998;2024-03-17T04:25:13;26.52;;;16.60;;
84254;SDS011;74400;44.692;18.998;2024-03-17T04:27:39;26.90;;;16.42;;
84254;SDS011;74400;44.692;18.998;2024-03-17T04:30:06;25.40;;;16.85;;
84254;SDS011;74400;44.692;18.998;2024-03-17T04:32:32;21.20;;;13.93;;
84254;SDS011;74400;44.692;18.998;2024-03-17T04:34:59;17.52;;;11.30;;
84254;SDS011;74400;44.692;18.998;2024-03-17T04:37:25;21.92;;;15.50;;
84254;SDS011;74400;44.692;18.998;2024-03-17T04:39:51;25.33;;;16.52;;
84254;SDS011;74400;44.692;18.998;2024-03-17T04:42:17;27.50;;;17.27;;
84254;SDS011;74400;44.692;18.998;2024-03-17T04:44:43;24.17;;;15.63;;
84254;SDS011;74400;44.692;18.998;2024-03-17T04:47:09;25.75;;;16.30;;
84254;SDS011;74400;44.692;18.998;2024-03-17T04:49:36;28.42;;;18.70;;
84254;SDS011;74400;44.692;18.998;2024-03-17T04:52:02;25.33;;;17.63;;
84254;SDS011;74400;44.692;18.998;2024-03-17T04:54:28;28.85;;;18.17;;
84254;SDS011;74400;44.692;18.998;2024-03-17T04:56:53;27.45;;;17.77;;
84254;SDS011;74400;44.692;18.998;2024-03-17T04:59:19;28.98;;;18.48;;
84254;SDS011;74400;44.692;18.998;2024-03-17T05:01:45;27.20;;;17.75;;
84254;SDS011;74400;44.692;18.998;2024-03-17T05:04:11;25.10;;;16.27;;
84254;SDS011;74400;44.692;18.998;2024-03-17T05:06:36;24.35;;;16.67;;
84254;SDS011;74400;44.692;18.998;2024-03-17T05:09:02;21.92;;;15.10;;
84254;SDS011;74400;44.692;18.998;2024-03-17T05:11:30;26.00;;;17.55;;
84254;SDS011;74400;44.692;18.998;2024-03-17T05:13:56;23.02;;;15.32;;
84254;SDS011;74400;44.692;18.998;2024-03-17T05:16:22;20.17;;;13.45;;
84254;SDS011;74400;44.692;18.998;2024-03-17T05:18:50;15.70;;;10.23;;
84254;SDS011;74400;44.692;18.998;2024-03-17T05:21:16;11.13;;;8.13;;
84254;SDS011;74400;44.692;18.998;2024-03-17T05:23:42;9.38;;;6.45;;
84254;SDS011;74400;44.692;18.998;2024-03-17T05:26:08;11.00;;;6.80;;
84254;SDS011;74400;44.692;18.998;2024-03-17T05:28:33;10.00;;;6.72;;
84254;SDS011;74400;44.692;18.998;2024-03-17T05:30:59;9.70;;;7.07;;
84254;SDS011;74400;44.692;18.998;2024-03-17T05:33:25;12.52;;;7.57;;
84254;SDS011;74400;44.692;18.998;2024-03-17T05:35:52;11.50;;;7.10;;
84254;SDS011;74400;44.692;18.998;2024-03-17T05:38:22;12.25;;;8.48;;
84254;SDS011;74400;44.692;18.998;2024-03-17T05:40:59;11.15;;;7.75;;
84254;SDS011;74400;44.692;18.998;2024-03-17T05:43:29;13.70;;;7.72;;
84254;SDS011;74400;44.692;18.998;2024-03-17T05:48:24;13.02;;;8.15;;
84254;SDS011;74400;44.692;18.998;2024-03-17T05:50:50;19.40;;;10.60;;
84254;SDS011;74400;44.692;18.998;2024-03-17T05:53:19;13.57;;;9.15;;
84254;SDS011;74400;44.692;18.998;2024-03-17T05:55:46;16.27;;;9.52;;
84254;SDS011;74400;44.692;18.998;2024-03-17T05:58:11;13.88;;;9.68;;
84254;SDS011;74400;44.692;18.998;2024-03-17T06:00:40;15.55;;;9.40;;
84254;SDS011;74400;44.692;18.998;2024-03-17T06:03:07;12.82;;;7.40;;
84254;SDS011;74400;44.692;18.998;2024-03-17T06:05:37;13.90;;;8.30;;
84254;SDS011;74400;44.692;18.998;2024-03-17T06:08:06;12.43;;;7.72;;
84254;SDS011;74400;44.692;18.998;2024-03-17T06:10:34;12.70;;;8.13;;
84254;SDS011;74400;44.692;18.998;2024-03-17T06:13:02;11.43;;;8.02;;
84254;SDS011;74400;44.692;18.998;2024-03-17T06:15:28;12.38;;;8.77;;
84254;SDS011;74400;44.692;18.998;2024-03-17T06:17:55;15.27;;;9.55;;
84254;SDS011;74400;44.692;18.998;2024-03-17T06:20:21;16.85;;;11.43;;
84254;SDS011;74400;44.692;18.998;2024-03-17T06:22:49;15.70;;;10.80;;
84254;SDS011;74400;44.692;18.998;2024-03-17T06:25:15;14.57;;;10.48;;
84254;SDS011;74400;44.692;18.998;2024-03-17T06:27:42;14.75;;;9.07;;
84254;SDS011;74400;44.692;18.998;2024-03-17T06:30:14;12.63;;;7.88;;
84254;SDS011;74400;44.692;18.998;2024-03-17T06:35:06;9.88;;;6.75;;
84254;SDS011;74400;44.692;18.998;2024-03-17T06:37:32;12.07;;;7.72;;
84254;SDS011;74400;44.692;18.998;2024-03-17T06:39:58;9.00;;;7.07;;
84254;SDS011;74400;44.692;18.998;2024-03-17T06:42:24;10.50;;;8.02;;
84254;SDS011;74400;44.692;18.998;2024-03-17T06:44:49;7.97;;;6.20;;
84254;SDS011;74400;44.692;18.998;2024-03-17T06:47:16;6.07;;;4.97;;
84254;SDS011;74400;44.692;18.998;2024-03-17T06:49:42;8.43;;;5.53;;
84254;SDS011;74400;44.692;18.998;2024-03-17T06:52:08;5.55;;;4.30;;
84254;SDS011;74400;44.692;18.998;2024-03-17T06:54:34;6.05;;;3.90;;
84254;SDS011;74400;44.692;18.998;2024-03-17T06:57:00;5.07;;;4.43;;
84254;SDS011;74400;44.692;18.998;2024-03-17T06:59:26;5.70;;;4.22;;
84254;SDS011;74400;44.692;18.998;2024-03-17T07:01:52;6.30;;;4.63;;
84254;SDS011;74400;44.692;18.998;2024-03-17T07:04:18;5.32;;;4.70;;
84254;SDS011;74400;44.692;18.998;2024-03-17T07:06:43;5.75;;;4.50;;
84254;SDS011;74400;44.692;18.998;2024-03-17T07:09:09;5.82;;;4.60;;
84254;SDS011;74400;44.692;18.998;2024-03-17T07:11:35;8.57;;;5.75;;
84254;SDS011;74400;44.692;18.998;2024-03-17T07:14:01;7.32;;;5.13;;
84254;SDS011;74400;44.692;18.998;2024-03-17T07:16:28;7.57;;;4.53;;
84254;SDS011;74400;44.692;18.998;2024-03-17T07:18:54;6.75;;;4.70;;
84254;SDS011;74400;44.692;18.998;2024-03-17T07:21:21;6.57;;;4.35;;
84254;SDS011;74400;44.692;18.998;2024-03-17T07:23:47;6.07;;;3.45;;
84254;SDS011;74400;44.692;18.998;2024-03-17T07:26:12;5.60;;;3.70;;
84254;SDS011;74400;44.692;18.998;2024-03-17T07:28:39;4.45;;;3.13;;
84254;SDS011;74400;44.692;18.998;2024-03-17T07:31:06;6.47;;;3.75;;
84254;SDS011;74400;44.692;18.998;2024-03-17T07:33:34;5.88;;;3.58;;
84254;SDS011;74400;44.692;18.998;2024-03-17T07:36:00;5.72;;;3.20;;
84254;SDS011;74400;44.692;18.998;2024-03-17T07:38:27;5.43;;;4.10;;
84254;SDS011;74400;44.692;18.998;2024-03-17T07:40:56;5.00;;;4.13;;
84254;SDS011;74400;44.692;18.998;2024-03-17T07:43:29;5.25;;;3.95;;
84254;SDS011;74400;44.692;18.998;2024-03-17T07:46:00;8.93;;;4.43;;
84254;SDS011;74400;44.692;18.998;2024-03-17T07:48:26;3.85;;;3.22;;
84254;SDS011;74400;44.692;18.998;2024-03-17T07:53:34;3.80;;;2.40;;
84254;SDS011;74400;44.692;18.998;2024-03-17T07:56:02;4.57;;;2.55;;
84254;SDS011;74400;44.692;18.998;2024-03-17T07:58:29;2.70;;;2.22;;
84254;SDS011;74400;44.692;18.998;2024-03-17T08:01:02;3.83;;;2.15;;
84254;SDS011;74400;44.692;18.998;2024-03-17T08:03:29;3.55;;;2.50;;
84254;SDS011;74400;44.692;18.998;2024-03-17T08:05:56;2.30;;;2.00;;
84254;SDS011;74400;44.692;18.998;2024-03-17T08:08:23;2.17;;;1.90;;
84254;SDS011;74400;44.692;18.998;2024-03-17T08:10:50;3.30;;;2.75;;
84254;SDS011;74400;44.692;18.998;2024-03-17T08:13:16;4.28;;;2.70;;
84254;SDS011;74400;44.692;18.998;2024-03-17T08:15:46;5.25;;;3.10;;
84254;SDS011;74400;44.692;18.998;2024-03-17T08:18:12;7.68;;;3.65;;
84254;SDS011;74400;44.692;18.998;2024-03-17T08:20:38;3.78;;;2.47;;
84254;SDS011;74400;44.692;18.998;2024-03-17T08:23:05;3.53;;;2.83;;
84254;SDS011;74400;44.692;18.998;2024-03-17T08:25:32;3.38;;;2.88;;
84254;SDS011;74400;44.692;18.998;2024-03-17T08:27:58;3.08;;;2.60;;
84254;SDS011;74400;44.692;18.998;2024-03-17T08:30:25;3.78;;;2.90;;
84254;SDS011;74400;44.692;18.998;2024-03-17T08:32:50;5.03;;;3.00;;
84254;SDS011;74400;44.692;18.998;2024-03-17T08:35:16;3.03;;;2.70;;
84254;SDS011;74400;44.692;18.998;2024-03-17T08:37:41;4.95;;;3.60;;
84254;SDS011;74400;44.692;18.998;2024-03-17T08:40:07;4.25;;;2.85;;
84254;SDS011;74400;44.692;18.998;2024-03-17T08:42:33;5.10;;;3.33;;
84254;SDS011;74400;44.692;18.998;2024-03-17T08:44:59;4.40;;;3.20;;
84254;SDS011;74400;44.692;18.998;2024-03-17T08:47:24;5.45;;;3.17;;
84254;SDS011;74400;44.692;18.998;2024-03-17T08:49:50;5.18;;;3.10;;
84254;SDS011;74400;44.692;18.998;2024-03-17T08:52:16;3.47;;;2.65;;
84254;SDS011;74400;44.692;18.998;2024-03-17T08:54:45;3.88;;;2.80;;
84254;SDS011;74400;44.692;18.998;2024-03-17T08:57:12;4.45;;;2.83;;
84254;SDS011;74400;44.692;18.998;2024-03-17T08:59:38;5.07;;;3.13;;
84254;SDS011;74400;44.692;18.998;2024-03-17T09:02:03;3.40;;;2.83;;
84254;SDS011;74400;44.692;18.998;2024-03-17T09:04:30;3.55;;;3.10;;
84254;SDS011;74400;44.692;18.998;2024-03-17T09:06:56;4.18;;;3.28;;
84254;SDS011;74400;44.692;18.998;2024-03-17T09:09:22;3.50;;;3.20;;
84254;SDS011;74400;44.692;18.998;2024-03-17T09:11:48;6.47;;;4.38;;
84254;SDS011;74400;44.692;18.998;2024-03-17T09:14:14;5.88;;;4.03;;
84254;SDS011;74400;44.692;18.998;2024-03-17T09:16:39;5.88;;;4.05;;
84254;SDS011;74400;44.692;18.998;2024-03-17T09:19:05;3.78;;;3.40;;
84254;SDS011;74400;44.692;18.998;2024-03-17T09:21:31;4.55;;;2.63;;
84254;SDS011;74400;44.692;18.998;2024-03-17T09:23:56;3.15;;;2.63;;
84254;SDS011;74400;44.692;18.998;2024-03-17T09:26:22;4.05;;;2.80;;
84254;SDS011;74400;44.692;18.998;2024-03-17T09:28:48;3.40;;;2.60;;
84254;SDS011;74400;44.692;18.998;2024-03-17T09:31:13;4.15;;;2.75;;
84254;SDS011;74400;44.692;18.998;2024-03-17T09:33:40;3.28;;;2.63;;
84254;SDS011;74400;44.692;18.998;2024-03-17T09:36:06;3.42;;;2.80;;
84254;SDS011;74400;44.692;18.998;2024-03-17T09:38:33;3.83;;;2.97;;
84254;SDS011;74400;44.692;18.998;2024-03-17T09:41:00;3.95;;;3.17;;
84254;SDS011;74400;44.692;18.998;2024-03-17T09:43:29;3.17;;;2.83;;
84254;SDS011;74400;44.692;18.998;2024-03-17T09:45:58;3.28;;;2.78;;
84254;SDS011;74400;44.692;18.998;2024-03-17T09:48:24;4.13;;;3.03;;
84254;SDS011;74400;44.692;18.998;2024-03-17T09:50:53;3.60;;;2.95;;
84254;SDS011;74400;44.692;18.998;2024-03-17T09:56:00;3.42;;;2.65;;
84254;SDS011;74400;44.692;18.998;2024-03-17T09:58:31;3.13;;;2.58;;
84254;SDS011;74400;44.692;18.998;2024-03-17T10:00:56;2.40;;;2.20;;
84254;SDS011;74400;44.692;18.998;2024-03-17T10:06:07;3.83;;;2.42;;
84254;SDS011;74400;44.692;18.998;2024-03-17T10:08:39;2.50;;;2.22;;
84254;SDS011;74400;44.692;18.998;2024-03-17T10:11:07;4.55;;;2.95;;
84254;SDS011;74400;44.692;18.998;2024-03-17T10:13:33;3.53;;;2.35;;
84254;SDS011;74400;44.692;18.998;2024-03-17T10:15:59;3.28;;;2.47;;
84254;SDS011;74400;44.692;18.998;2024-03-17T10:18:25;2.67;;;2.45;;
84254;SDS011;74400;44.692;18.998;2024-03-17T10:20:51;2.63;;;2.28;;
84254;SDS011;74400;44.692;18.998;2024-03-17T10:23:20;3.80;;;2.72;;
84254;SDS011;74400;44.692;18.998;2024-03-17T10:25:46;10.60;;;5.10;;
84254;SDS011;74400;44.692;18.998;2024-03-17T10:28:12;5.00;;;3.05;;
84254;SDS011;74400;44.692;18.998;2024-03-17T10:30:39;4.22;;;2.83;;
84254;SDS011;74400;44.692;18.998;2024-03-17T10:33:06;6.10;;;2.80;;
84254;SDS011;74400;44.692;18.998;2024-03-17T10:35:37;6.50;;;3.40;;
84254;SDS011;74400;44.692;18.998;2024-03-17T10:38:04;3.20;;;2.42;;
84254;SDS011;74400;44.692;18.998;2024-03-17T10:40:31;2.78;;;2.47;;
84254;SDS011;74400;44.692;18.998;2024-03-17T10:43:04;2.65;;;1.98;;
84254;SDS011;74400;44.692;18.998;2024-03-17T10:45:30;3.78;;;2.25;;
84254;SDS011;74400;44.692;18.998;2024-03-17T10:48:01;2.67;;;2.47;;
84254;SDS011;74400;44.692;18.998;2024-03-17T10:50:32;2.70;;;2.17;;
84254;SDS011;74400;44.692;18.998;2024-03-17T10:53:02;4.10;;;2.63;;
84254;SDS011;74400;44.692;18.998;2024-03-17T10:55:31;3.00;;;1.90;;
84254;SDS011;74400;44.692;18.998;2024-03-17T10:58:01;2.50;;;2.00;;
84254;SDS011;74400;44.692;18.998;2024-03-17T11:00:33;2.95;;;2.00;;
84254;SDS011;74400;44.692;18.998;2024-03-17T11:03:00;3.28;;;2.60;;
84254;SDS011;74400;44.692;18.998;2024-03-17T11:05:26;2.92;;;2.17;;
84254;SDS011;74400;44.692;18.998;2024-03-17T11:07:59;1.92;;;1.55;;
84254;SDS011;74400;44.692;18.998;2024-03-17T11:10:29;2.83;;;2.00;;
84254;SDS011;74400;44.692;18.998;2024-03-17T11:12:57;3.05;;;2.15;;
84254;SDS011;74400;44.692;18.998;2024-03-17T11:20:33;2.03;;;1.23;;
84254;SDS011;74400;44.692;18.998;2024-03-17T11:23:00;2.40;;;1.88;;
84254;SDS011;74400;44.692;18.998;2024-03-17T11:28:07;1.52;;;1.20;;
84254;SDS011;74400;44.692;18.998;2024-03-17T11:44:23;2.28;;;1.63;;
84254;SDS011;74400;44.692;18.998;2024-03-17T11:51:57;2.13;;;1.67;;
84254;SDS011;74400;44.692;18.998;2024-03-17T11:54:29;3.35;;;2.15;;
84254;SDS011;74400;44.692;18.998;2024-03-17T11:56:59;2.97;;;1.98;;
84254;SDS011;74400;44.692;18.998;2024-03-17T11:59:26;1.92;;;1.45;;
84254;SDS011;74400;44.692;18.998;2024-03-17T12:01:52;2.30;;;1.70;;
84254;SDS011;74400;44.692;18.998;2024-03-17T12:04:19;2.35;;;1.98;;
84254;SDS011;74400;44.692;18.998;2024-03-17T12:06:50;3.95;;;2.08;;
84254;SDS011;74400;44.692;18.998;2024-03-17T12:09:27;3.45;;;1.90;;
84254;SDS011;74400;44.692;18.998;2024-03-17T12:14:43;1.75;;;1.52;;
84254;SDS011;74400;44.692;18.998;2024-03-17T12:17:10;2.30;;;1.92;;
84254;SDS011;74400;44.692;18.998;2024-03-17T12:19:37;3.47;;;2.70;;
84254;SDS011;74400;44.692;18.998;2024-03-17T12:22:06;3.03;;;2.08;;
84254;SDS011;74400;44.692;18.998;2024-03-17T12:24:35;2.58;;;1.75;;
84254;SDS011;74400;44.692;18.998;2024-03-17T12:27:04;2.10;;;1.90;;
84254;SDS011;74400;44.692;18.998;2024-03-17T12:29:37;3.22;;;2.20;;
84254;SDS011;74400;44.692;18.998;2024-03-17T12:34:33;2.85;;;1.90;;
84254;SDS011;74400;44.692;18.998;2024-03-17T12:37:02;2.45;;;1.30;;
84254;SDS011;74400;44.692;18.998;2024-03-17T12:39:32;2.40;;;1.50;;
84254;SDS011;74400;44.692;18.998;2024-03-17T12:42:09;2.13;;;1.37;;
84254;SDS011;74400;44.692;18.998;2024-03-17T12:44:38;1.52;;;1.33;;
84254;SDS011;74400;44.692;18.998;2024-03-17T12:47:07;1.42;;;1.15;;
84254;SDS011;74400;44.692;18.998;2024-03-17T12:49:33;1.52;;;1.25;;
84254;SDS011;74400;44.692;18.998;2024-03-17T12:52:00;2.03;;;1.30;;
84254;SDS011;74400;44.692;18.998;2024-03-17T12:54:27;2.17;;;1.40;;
84254;SDS011;74400;44.692;18.998;2024-03-17T12:57:03;3.42;;;1.38;;
84254;SDS011;74400;44.692;18.998;2024-03-17T13:00:16;4.05;;;2.83;;
84254;SDS011;74400;44.692;18.998;2024-03-17T13:03:07;2.08;;;1.58;;
84254;SDS011;74400;44.692;18.998;2024-03-17T13:05:33;17.42;;;8.48;;
84254;SDS011;74400;44.692;18.998;2024-03-17T13:08:00;2.33;;;1.95;;
84254;SDS011;74400;44.692;18.998;2024-03-17T13:10:27;2.72;;;1.60;;
84254;SDS011;74400;44.692;18.998;2024-03-17T13:13:07;1.98;;;1.63;;
84254;SDS011;74400;44.692;18.998;2024-03-17T13:15:34;2.47;;;1.90;;
84254;SDS011;74400;44.692;18.998;2024-03-17T13:18:01;2.65;;;1.55;;
84254;SDS011;74400;44.692;18.998;2024-03-17T13:20:29;1.70;;;1.40;;
84254;SDS011;74400;44.692;18.998;2024-03-17T13:22:55;2.47;;;1.55;;
84254;SDS011;74400;44.692;18.998;2024-03-17T13:25:26;2.13;;;1.30;;
84254;SDS011;74400;44.692;18.998;2024-03-17T13:27:59;1.40;;;1.30;;
84254;SDS011;74400;44.692;18.998;2024-03-17T13:30:25;1.80;;;1.40;;
84254;SDS011;74400;44.692;18.998;2024-03-17T13:32:53;2.70;;;1.52;;
84254;SDS011;74400;44.692;18.998;2024-03-17T13:35:26;2.13;;;1.55;;
84254;SDS011;74400;44.692;18.998;2024-03-17T13:37:54;2.55;;;1.42;;
84254;SDS011;74400;44.692;18.998;2024-03-17T13:40:20;2.67;;;1.50;;
84254;SDS011;74400;44.692;18.998;2024-03-17T13:42:49;3.22;;;1.65;;
84254;SDS011;74400;44.692;18.998;2024-03-17T13:45:17;1.55;;;1.10;;
84254;SDS011;74400;44.692;18.998;2024-03-17T13:47:58;2.22;;;1.88;;
84254;SDS011;74400;44.692;18.998;2024-03-17T13:50:25;2.78;;;1.67;;
84254;SDS011;74400;44.692;18.998;2024-03-17T13:52:51;4.07;;;2.00;;
84254;SDS011;74400;44.692;18.998;2024-03-17T13:55:18;2.72;;;1.60;;
84254;SDS011;74400;44.692;18.998;2024-03-17T13:57:47;1.83;;;1.23;;
84254;SDS011;74400;44.692;18.998;2024-03-17T14:00:15;2.95;;;1.30;;
84254;SDS011;74400;44.692;18.998;2024-03-17T14:05:08;1.27;;;0.98;;
84254;SDS011;74400;44.692;18.998;2024-03-17T14:07:38;1.77;;;1.15;;
84254;SDS011;74400;44.692;18.998;2024-03-17T14:10:04;1.05;;;0.95;;
84254;SDS011;74400;44.692;18.998;2024-03-17T14:12:31;1.10;;;1.00;;
84254;SDS011;74400;44.692;18.998;2024-03-17T14:14:56;1.58;;;0.80;;
84254;SDS011;74400;44.692;18.998;2024-03-17T14:17:22;3.67;;;1.08;;
84254;SDS011;74400;44.692;18.998;2024-03-17T14:19:48;1.58;;;0.80;;
84254;SDS011;74400;44.692;18.998;2024-03-17T14:22:14;1.27;;;0.82;;
84254;SDS011;74400;44.692;18.998;2024-03-17T14:24:40;0.90;;;0.90;;
84254;SDS011;74400;44.692;18.998;2024-03-17T14:27:06;0.88;;;0.88;;
84254;SDS011;74400;44.692;18.998;2024-03-17T14:29:32;1.25;;;0.90;;
84254;SDS011;74400;44.692;18.998;2024-03-17T14:31:58;1.02;;;0.90;;
84254;SDS011;74400;44.692;18.998;2024-03-17T14:34:24;1.58;;;1.17;;
84254;SDS011;74400;44.692;18.998;2024-03-17T14:36:52;1.08;;;0.90;;
84254;SDS011;74400;44.692;18.998;2024-03-17T14:39:17;2.08;;;1.00;;
84254;SDS011;74400;44.692;18.998;2024-03-17T14:41:43;1.98;;;1.10;;
84254;SDS011;74400;44.692;18.998;2024-03-17T14:44:09;1.70;;;1.10;;
84254;SDS011;74400;44.692;18.998;2024-03-17T14:46:34;1.10;;;1.00;;
84254;SDS011;74400;44.692;18.998;2024-03-17T14:49:00;1.20;;;0.95;;
84254;SDS011;74400;44.692;18.998;2024-03-17T14:51:26;4.65;;;2.40;;
84254;SDS011;74400;44.692;18.998;2024-03-17T14:53:52;2.20;;;1.63;;
84254;SDS011;74400;44.692;18.998;2024-03-17T14:56:18;2.05;;;1.85;;
84254;SDS011;74400;44.692;18.998;2024-03-17T14:58:44;2.70;;;2.10;;
84254;SDS011;74400;44.692;18.998;2024-03-17T15:01:14;2.15;;;1.70;;
84254;SDS011;74400;44.692;18.998;2024-03-17T15:03:40;2.10;;;1.58;;
84254;SDS011;74400;44.692;18.998;2024-03-17T15:06:09;1.95;;;1.70;;
84254;SDS011;74400;44.692;18.998;2024-03-17T15:08:37;1.40;;;1.23;;
84254;SDS011;74400;44.692;18.998;2024-03-17T15:11:02;1.23;;;1.10;;
84254;SDS011;74400;44.692;18.998;2024-03-17T15:13:28;2.75;;;1.92;;
84254;SDS011;74400;44.692;18.998;2024-03-17T15:15:54;1.42;;;1.17;;
84254;SDS011;74400;44.692;18.998;2024-03-17T15:18:23;3.28;;;1.70;;
84254;SDS011;74400;44.692;18.998;2024-03-17T15:20:52;1.42;;;1.00;;